createdAt,value
2017-09-30T00:00:09.336Z,155.40
2017-09-30T00:01:30.099Z,121.40
2017-09-30T00:02:51.522Z,178.90
2017-09-30T00:04:12.458Z,158.80
2017-09-30T00:05:33.072Z,181.90
2017-09-30T00:06:53.559Z,174.10
2017-09-30T00:08:13.941Z,191.70
2017-09-30T00:09:34.173Z,227.20
2017-09-30T00:10:55.267Z,204.70
2017-09-30T00:12:15.765Z,184.10
2017-09-30T00:13:36.102Z,188.30
2017-09-30T00:14:57.203Z,204.30
2017-09-30T00:16:18.840Z,248.00
2017-09-30T00:17:39.173Z,264.70
2017-09-30T00:18:59.802Z,265.60
2017-09-30T00:20:20.148Z,242.40
2017-09-30T00:21:40.601Z,231.70
2017-09-30T00:23:01.107Z,204.20
2017-09-30T00:24:21.547Z,193.40
2017-09-30T00:25:41.778Z,192.60
2017-09-30T00:27:02.265Z,170.90
2017-09-30T00:28:22.416Z,167.40
2017-09-30T00:29:43.326Z,178.60
2017-09-30T00:31:03.628Z,164.40
2017-09-30T00:32:24.096Z,166.30
2017-09-30T00:33:45.035Z,177.40
2017-09-30T00:35:05.327Z,175.00
2017-09-30T00:36:25.847Z,168.30
2017-09-30T00:37:46.359Z,194.00
2017-09-30T00:39:06.818Z,247.90
2017-09-30T00:40:27.308Z,234.00
2017-09-30T00:41:47.645Z,230.60
2017-09-30T00:43:08.054Z,249.10
2017-09-30T00:44:28.362Z,274.60
2017-09-30T00:45:48.801Z,274.20
2017-09-30T00:47:09.157Z,240.60
2017-09-30T00:48:30.086Z,223.50
2017-09-30T00:49:50.446Z,215.90
2017-09-30T00:51:10.910Z,222.80
2017-09-30T00:52:31.378Z,242.10
2017-09-30T00:53:51.862Z,253.30
2017-09-30T00:55:12.236Z,241.90
2017-09-30T00:56:32.688Z,249.90
2017-09-30T00:57:54.605Z,263.50
2017-09-30T00:59:15.316Z,285.40
2017-09-30T01:00:35.804Z,287.20
2017-09-30T01:01:56.481Z,351.30
2017-09-30T01:03:17.093Z,456.00
2017-09-30T01:04:37.545Z,434.50
2017-09-30T01:05:58.441Z,369.60
2017-09-30T01:07:18.964Z,319.10
2017-09-30T01:08:39.740Z,306.20
2017-09-30T01:10:00.726Z,274.00
2017-09-30T01:11:21.140Z,281.60
2017-09-30T01:12:42.261Z,268.50
2017-09-30T01:14:02.774Z,319.10
2017-09-30T01:15:23.162Z,265.70
2017-09-30T01:16:43.764Z,259.00
2017-09-30T01:18:04.512Z,285.10
2017-09-30T01:19:24.887Z,318.00
2017-09-30T01:20:45.160Z,326.00
2017-09-30T01:22:05.757Z,321.80
2017-09-30T01:23:26.189Z,333.60
2017-09-30T01:24:46.717Z,362.10
2017-09-30T01:26:07.382Z,378.60
2017-09-30T01:27:28.474Z,364.70
2017-09-30T01:28:49.034Z,331.40
2017-09-30T01:30:09.570Z,392.10
2017-09-30T01:31:30.562Z,373.50
2017-09-30T01:32:51.383Z,409.40
2017-09-30T01:34:11.813Z,363.40
2017-09-30T01:35:32.200Z,369.70
2017-09-30T01:36:52.513Z,321.20
2017-09-30T01:38:12.977Z,315.10
2017-09-30T01:39:33.394Z,283.40
2017-09-30T01:40:53.827Z,281.60
2017-09-30T01:42:15.243Z,255.20
2017-09-30T01:43:35.621Z,296.70
2017-09-30T01:44:56.528Z,303.40
2017-09-30T01:46:17.086Z,322.70
2017-09-30T01:47:38.187Z,344.20
2017-09-30T01:48:59.045Z,331.90
2017-09-30T01:50:19.581Z,314.60
2017-09-30T01:51:39.899Z,311.80
2017-09-30T01:53:01.267Z,320.80
2017-09-30T01:54:22.369Z,297.90
2017-09-30T01:55:42.891Z,307.40
2017-09-30T01:57:04.172Z,311.80
2017-09-30T01:58:24.454Z,276.20
2017-09-30T01:59:45.110Z,295.10
2017-09-30T02:01:05.797Z,303.60
2017-09-30T02:02:26.330Z,307.00
2017-09-30T02:03:47.515Z,287.60
2017-09-30T02:05:08.156Z,299.70
2017-09-30T02:06:28.585Z,313.10
2017-09-30T02:07:49.217Z,305.30
2017-09-30T02:09:09.903Z,354.70
2017-09-30T02:10:30.560Z,372.00
2017-09-30T02:11:51.262Z,337.50
2017-09-30T02:13:11.804Z,461.00
2017-09-30T02:14:32.418Z,308.80
2017-09-30T02:15:53.019Z,351.80
2017-09-30T02:17:13.649Z,353.80
2017-09-30T02:18:34.069Z,369.30
2017-09-30T02:19:54.829Z,370.90
2017-09-30T02:21:15.403Z,375.20
2017-09-30T02:22:35.938Z,377.90
2017-09-30T02:23:56.723Z,391.00
2017-09-30T02:25:17.233Z,412.00
2017-09-30T02:26:37.637Z,349.10
2017-09-30T02:27:58.233Z,363.30
2017-09-30T02:29:19.307Z,404.10
2017-09-30T02:30:39.791Z,361.90
2017-09-30T02:32:01.120Z,357.40
2017-09-30T02:33:21.662Z,445.60
2017-09-30T02:34:42.104Z,477.10
2017-09-30T02:36:02.713Z,473.20
2017-09-30T02:37:23.569Z,544.00
2017-09-30T02:38:44.107Z,367.10
2017-09-30T02:40:04.601Z,311.80
2017-09-30T02:41:25.095Z,282.60
2017-09-30T02:42:46.489Z,287.60
2017-09-30T02:44:06.941Z,489.70
2017-09-30T02:45:27.486Z,439.80
2017-09-30T02:46:47.845Z,393.70
2017-09-30T02:48:08.470Z,424.00
2017-09-30T02:49:29.571Z,465.50
2017-09-30T02:50:50.152Z,512.00
2017-09-30T02:52:10.905Z,470.20
2017-09-30T02:53:31.661Z,542.20
2017-09-30T02:54:52.207Z,330.90
2017-09-30T02:56:12.789Z,395.90
2017-09-30T02:57:33.180Z,256.30
2017-09-30T02:58:53.716Z,248.60
2017-09-30T03:00:14.222Z,254.00
2017-09-30T03:01:34.854Z,241.40
2017-09-30T03:02:55.523Z,305.40
2017-09-30T03:04:16.155Z,235.50
2017-09-30T03:05:36.744Z,189.80
2017-09-30T03:06:57.437Z,149.90
2017-09-30T03:08:18.222Z,129.50
2017-09-30T03:09:38.462Z,209.00
2017-09-30T03:10:59.072Z,200.40
2017-09-30T03:12:20.464Z,188.30
2017-09-30T03:13:41.404Z,162.50
2017-09-30T03:15:01.968Z,214.60
2017-09-30T03:16:22.521Z,329.70
2017-09-30T03:17:42.791Z,249.50
2017-09-30T03:19:03.268Z,247.00
2017-09-30T03:20:24.387Z,238.80
2017-09-30T03:21:44.898Z,302.40
2017-09-30T03:23:05.477Z,220.90
2017-09-30T03:24:25.981Z,405.40
2017-09-30T03:25:46.597Z,290.30
2017-09-30T03:27:07.173Z,299.60
2017-09-30T03:28:27.594Z,263.30
2017-09-30T03:29:48.008Z,267.80
2017-09-30T03:36:10.717Z,138.20
2017-09-30T03:37:31.217Z,127.30
2017-09-30T03:38:52.148Z,127.10
2017-09-30T03:40:12.674Z,132.90
2017-09-30T03:41:33.395Z,149.40
2017-09-30T03:42:54.328Z,149.40
2017-09-30T03:44:15.141Z,153.30
2017-09-30T03:45:35.568Z,185.70
2017-09-30T03:46:56.264Z,183.10
2017-09-30T03:48:17.350Z,199.70
2017-09-30T03:49:37.859Z,242.70
2017-09-30T03:50:58.448Z,236.10
2017-09-30T03:52:19.180Z,311.80
2017-09-30T03:53:39.789Z,297.60
2017-09-30T03:55:00.417Z,419.90
2017-09-30T03:56:20.993Z,251.20
2017-09-30T03:57:41.564Z,252.60
2017-09-30T03:59:02.973Z,357.20
2017-09-30T04:00:23.297Z,225.30
2017-09-30T04:01:43.826Z,247.10
2017-09-30T04:03:04.726Z,280.60
2017-09-30T04:04:25.358Z,213.30
2017-09-30T04:05:45.852Z,221.10
2017-09-30T04:07:06.254Z,245.30
2017-09-30T04:08:26.865Z,172.20
2017-09-30T04:09:47.177Z,143.10
2017-09-30T04:11:07.680Z,125.40
2017-09-30T04:12:28.119Z,132.10
2017-09-30T04:13:48.683Z,123.40
2017-09-30T04:15:09.187Z,93.60
2017-09-30T04:16:29.761Z,101.10
2017-09-30T04:17:50.671Z,112.50
2017-09-30T04:19:11.257Z,108.50
2017-09-30T04:20:32.490Z,93.90
2017-09-30T04:21:53.128Z,117.10
2017-09-30T04:23:13.649Z,127.70
2017-09-30T04:24:34.636Z,114.80
2017-09-30T04:25:55.237Z,99.30
2017-09-30T04:27:16.069Z,114.40
2017-09-30T04:28:36.601Z,105.20
2017-09-30T04:29:57.156Z,121.70
2017-09-30T04:31:18.191Z,191.50
2017-09-30T04:32:38.516Z,159.20
2017-09-30T04:33:59.285Z,158.60
2017-09-30T04:35:20.040Z,136.30
2017-09-30T04:36:40.426Z,136.40
2017-09-30T04:38:00.958Z,110.60
2017-09-30T04:39:21.416Z,149.10
2017-09-30T04:40:41.902Z,128.40
2017-09-30T04:42:02.884Z,124.00
2017-09-30T04:43:23.284Z,112.40
2017-09-30T04:44:43.631Z,107.10
2017-09-30T04:46:04.142Z,115.40
2017-09-30T04:47:24.788Z,120.00
2017-09-30T04:48:45.340Z,138.10
2017-09-30T04:50:06.611Z,142.50
2017-09-30T04:51:26.996Z,124.60
2017-09-30T04:52:47.539Z,107.20
2017-09-30T04:54:08.573Z,83.00
2017-09-30T04:55:28.977Z,93.10
2017-09-30T04:56:49.487Z,105.50
2017-09-30T04:58:11.501Z,110.60
2017-09-30T04:59:31.956Z,122.40
2017-09-30T05:00:52.443Z,111.00
2017-09-30T05:02:13.024Z,100.90
2017-09-30T05:03:33.444Z,98.60
2017-09-30T05:04:53.778Z,87.90
2017-09-30T05:06:14.781Z,78.70
2017-09-30T05:07:35.354Z,91.60
2017-09-30T05:08:56.076Z,111.70
2017-09-30T05:10:16.489Z,89.30
2017-09-30T05:11:36.881Z,90.20
2017-09-30T05:12:57.605Z,87.30
2017-09-30T05:14:18.335Z,110.40
2017-09-30T05:15:38.797Z,126.90
2017-09-30T05:16:59.275Z,95.40
2017-09-30T05:18:19.682Z,103.60
2017-09-30T05:19:40.806Z,93.30
2017-09-30T05:21:01.591Z,88.40
2017-09-30T05:22:22.178Z,92.70
2017-09-30T05:23:42.656Z,103.60
2017-09-30T05:25:03.413Z,130.50
2017-09-30T05:26:24.061Z,143.00
2017-09-30T05:27:44.649Z,175.70
2017-09-30T05:29:05.026Z,171.90
2017-09-30T05:30:26.315Z,150.30
2017-09-30T05:31:46.601Z,166.90
2017-09-30T05:33:07.259Z,146.20
2017-09-30T05:34:28.389Z,198.80
2017-09-30T05:35:49.020Z,153.20
2017-09-30T05:37:09.690Z,149.00
2017-09-30T05:38:30.977Z,152.80
2017-09-30T05:39:51.743Z,156.60
2017-09-30T05:41:12.567Z,173.90
2017-09-30T05:42:33.204Z,173.20
2017-09-30T05:43:53.900Z,151.40
2017-09-30T05:45:15.482Z,139.20
2017-09-30T05:46:36.081Z,133.30
2017-09-30T05:47:56.862Z,128.50
2017-09-30T05:49:17.532Z,130.70
2017-09-30T05:50:38.055Z,135.10
2017-09-30T05:51:58.866Z,113.80
2017-09-30T05:53:19.481Z,108.90
2017-09-30T05:54:40.353Z,130.60
2017-09-30T05:56:01.151Z,132.60
2017-09-30T05:57:22.326Z,135.10
2017-09-30T05:58:42.931Z,122.00
2017-09-30T06:00:03.452Z,128.50
2017-09-30T06:01:25.163Z,124.80
2017-09-30T06:02:45.734Z,117.90
2017-09-30T06:04:06.229Z,131.20
2017-09-30T06:05:27.010Z,149.50
2017-09-30T06:06:47.632Z,151.40
2017-09-30T06:08:08.618Z,135.50
2017-09-30T06:09:29.176Z,172.00
2017-09-30T06:10:49.753Z,180.20
2017-09-30T06:12:11.347Z,158.60
2017-09-30T06:13:31.944Z,140.60
2017-09-30T06:14:52.655Z,141.00
2017-09-30T06:16:13.284Z,120.70
2017-09-30T06:17:34.053Z,126.60
2017-09-30T06:18:54.847Z,140.70
2017-09-30T06:20:15.660Z,151.90
2017-09-30T06:21:36.299Z,244.00
2017-09-30T06:22:57.196Z,179.20
2017-09-30T06:24:18.185Z,183.90
2017-09-30T06:25:39.425Z,187.30
2017-09-30T06:27:00.092Z,164.00
2017-09-30T06:28:21.403Z,239.60
2017-09-30T06:29:42.097Z,219.00
2017-09-30T06:31:02.866Z,161.80
2017-09-30T06:32:23.396Z,170.30
2017-09-30T06:33:45.147Z,138.00
2017-09-30T06:35:05.868Z,136.10
2017-09-30T06:36:26.393Z,151.70
2017-09-30T06:37:46.961Z,152.10
2017-09-30T06:39:07.608Z,149.80
2017-09-30T06:40:28.316Z,146.90
2017-09-30T06:41:48.922Z,157.80
2017-09-30T06:43:09.633Z,139.10
2017-09-30T06:44:30.165Z,166.30
2017-09-30T06:45:51.021Z,165.90
2017-09-30T06:47:11.611Z,155.50
2017-09-30T06:48:32.341Z,190.70
2017-09-30T06:49:53.332Z,228.10
2017-09-30T06:51:13.895Z,232.60
2017-09-30T06:52:36.098Z,189.50
2017-09-30T06:53:57.049Z,174.50
2017-09-30T06:55:17.722Z,172.60
2017-09-30T06:56:38.876Z,198.20
2017-09-30T06:57:59.526Z,179.80
2017-09-30T06:59:20.426Z,198.20
2017-09-30T07:00:42.312Z,179.80
2017-09-30T07:02:03.177Z,181.20
2017-09-30T07:03:23.642Z,220.40
2017-09-30T07:04:44.209Z,169.40
2017-09-30T07:06:05.144Z,196.10
2017-09-30T07:07:25.866Z,152.40
2017-09-30T07:08:46.528Z,168.00
2017-09-30T07:10:07.241Z,122.80
2017-09-30T07:11:28.093Z,108.30
2017-09-30T07:12:49.048Z,105.00
2017-09-30T07:14:10.581Z,110.80
2017-09-30T07:15:31.209Z,113.00
2017-09-30T07:16:52.347Z,140.20
2017-09-30T07:18:13.116Z,150.50
2017-09-30T07:19:33.779Z,112.00
2017-09-30T07:20:54.525Z,136.50
2017-09-30T07:22:15.473Z,124.20
2017-09-30T07:23:36.290Z,107.30
2017-09-30T07:24:57.063Z,80.60
2017-09-30T07:26:17.764Z,91.30
2017-09-30T07:27:38.441Z,95.50
2017-09-30T07:28:59.274Z,96.10
2017-09-30T07:30:19.896Z,111.80
2017-09-30T07:31:40.639Z,167.80
2017-09-30T07:33:02.944Z,116.50
2017-09-30T07:34:23.480Z,121.50
2017-09-30T07:35:44.147Z,125.10
2017-09-30T07:37:05.299Z,98.10
2017-09-30T07:38:26.077Z,147.20
2017-09-30T07:39:46.837Z,122.10
2017-09-30T07:41:08.167Z,110.50
2017-09-30T07:42:28.913Z,73.50
2017-09-30T07:43:49.595Z,71.60
2017-09-30T07:45:10.582Z,105.70
2017-09-30T07:46:31.261Z,100.60
2017-09-30T07:47:53.304Z,136.30
2017-09-30T07:49:14.213Z,102.10
2017-09-30T07:50:35.213Z,82.10
2017-09-30T07:51:57.054Z,96.40
2017-09-30T07:53:18.083Z,94.90
2017-09-30T07:54:38.765Z,97.20
2017-09-30T07:56:00.085Z,98.20
2017-09-30T07:57:20.899Z,56.40
2017-09-30T07:58:41.811Z,72.70
2017-09-30T08:00:03.502Z,66.90
2017-09-30T08:01:24.140Z,74.10
2017-09-30T08:02:44.860Z,62.20
2017-09-30T08:04:05.490Z,58.30
2017-09-30T08:05:26.418Z,62.60
2017-09-30T08:06:47.318Z,79.10
2017-09-30T08:08:07.958Z,61.30
2017-09-30T08:15:58.676Z,87.10
2017-09-30T08:17:19.457Z,97.10
2017-09-30T08:18:40.044Z,81.20
2017-09-30T08:20:02.444Z,112.60
2017-09-30T08:21:23.339Z,116.30
2017-09-30T08:22:44.037Z,119.50
2017-09-30T08:24:04.931Z,98.80
2017-09-30T08:25:26.279Z,72.40
2017-09-30T08:26:47.000Z,98.40
2017-09-30T08:28:08.242Z,94.10
2017-09-30T08:29:29.025Z,72.90
2017-09-30T08:30:49.934Z,105.20
2017-09-30T08:32:10.867Z,105.90
2017-09-30T08:33:32.423Z,98.90
2017-09-30T08:34:53.294Z,90.40
2017-09-30T08:36:14.130Z,79.90
2017-09-30T08:37:35.823Z,55.10
2017-09-30T08:38:56.554Z,71.90
2017-09-30T08:40:18.472Z,100.20
2017-09-30T08:41:39.069Z,99.30
2017-09-30T08:43:05.406Z,103.30
2017-09-30T08:44:26.498Z,92.10
2017-09-30T08:45:47.190Z,66.00
2017-09-30T08:47:07.940Z,83.80
2017-09-30T08:48:28.888Z,83.80
2017-09-30T08:49:49.842Z,86.00
2017-09-30T08:51:10.458Z,45.60
2017-09-30T08:52:31.205Z,82.00
2017-09-30T08:53:52.220Z,82.50
2017-09-30T08:55:12.980Z,76.10
2017-09-30T08:56:34.728Z,58.40
2017-09-30T08:57:56.079Z,91.50
2017-09-30T08:59:16.736Z,69.90
2017-09-30T09:00:37.416Z,101.40
2017-09-30T09:01:58.361Z,68.10
2017-09-30T09:03:19.271Z,66.60
2017-09-30T09:04:40.413Z,84.60
2017-09-30T09:06:01.922Z,100.80
2017-09-30T09:07:23.485Z,87.60
2017-09-30T09:08:46.704Z,86.10
2017-09-30T09:10:07.425Z,96.70
2017-09-30T09:11:29.090Z,97.60
2017-09-30T09:12:50.733Z,86.80
2017-09-30T09:14:12.276Z,64.60
2017-09-30T09:15:33.606Z,41.70
2017-09-30T09:16:56.438Z,56.50
2017-09-30T09:18:19.355Z,47.20
2017-09-30T09:19:40.195Z,65.40
2017-09-30T09:21:14.433Z,59.10
2017-09-30T09:22:36.543Z,57.50
2017-09-30T09:23:59.170Z,61.00
2017-09-30T09:25:20.659Z,81.70
2017-09-30T09:26:41.934Z,71.20
2017-09-30T09:28:02.719Z,71.90
2017-09-30T09:29:24.979Z,87.80
2017-09-30T09:30:50.637Z,102.30
2017-09-30T09:32:13.042Z,105.80
2017-09-30T09:33:36.147Z,105.10
2017-09-30T09:34:59.941Z,132.20
2017-09-30T09:36:23.134Z,0.00
2017-09-30T09:37:44.416Z,0.00
2017-09-30T09:39:06.231Z,105.60
2017-09-30T09:40:28.594Z,139.70
2017-09-30T09:41:50.172Z,116.50
2017-09-30T09:43:12.347Z,135.70
2017-09-30T09:44:34.452Z,144.40
2017-09-30T09:45:59.797Z,149.20
2017-09-30T09:47:21.473Z,105.90
2017-09-30T09:48:43.723Z,118.30
2017-09-30T09:50:05.273Z,110.70
2017-09-30T09:51:27.831Z,125.60
2017-09-30T09:52:48.875Z,122.80
2017-09-30T09:54:11.205Z,137.40
2017-09-30T09:55:34.638Z,128.60
2017-09-30T09:56:56.856Z,127.30
2017-09-30T09:58:18.450Z,113.60
2017-09-30T09:59:39.860Z,104.40
2017-09-30T10:01:06.532Z,107.50
2017-09-30T10:02:27.862Z,104.10
2017-09-30T10:03:49.257Z,123.50
2017-09-30T10:05:13.505Z,87.10
2017-09-30T10:06:44.294Z,159.50
2017-09-30T10:08:06.045Z,101.60
2017-09-30T10:09:27.089Z,99.00
2017-09-30T10:10:53.435Z,117.80
2017-09-30T10:12:15.722Z,116.40
2017-09-30T10:13:36.474Z,94.30
2017-09-30T10:14:57.839Z,107.10
2017-09-30T10:16:18.977Z,119.90
2017-09-30T10:17:39.683Z,86.10
2017-09-30T10:19:00.773Z,77.90
2017-09-30T10:20:22.885Z,72.50
2017-09-30T10:21:43.526Z,77.20
2017-09-30T10:23:04.337Z,80.40
2017-09-30T10:24:25.055Z,104.50
2017-09-30T10:25:45.607Z,109.50
2017-09-30T10:27:08.203Z,104.20
2017-09-30T10:28:29.004Z,83.00
2017-09-30T10:29:51.402Z,74.10
2017-09-30T10:31:12.135Z,67.90
2017-09-30T10:32:33.564Z,63.70
2017-09-30T10:33:54.532Z,57.10
2017-09-30T10:35:16.315Z,74.70
2017-09-30T10:36:37.656Z,82.40
2017-09-30T10:37:58.883Z,58.20
2017-09-30T10:39:19.655Z,86.70
2017-09-30T10:40:42.287Z,74.10
2017-09-30T10:42:03.732Z,59.20
2017-09-30T10:43:24.872Z,95.60
2017-09-30T10:44:45.871Z,73.10
2017-09-30T10:46:07.023Z,56.20
2017-09-30T10:47:28.609Z,81.30
2017-09-30T10:48:50.782Z,74.90
2017-09-30T10:50:12.796Z,117.50
2017-09-30T10:51:34.790Z,92.40
2017-09-30T10:52:56.009Z,98.70
2017-09-30T10:54:17.106Z,88.60
2017-09-30T10:55:42.115Z,60.60
2017-09-30T10:57:02.888Z,0.00
2017-09-30T10:58:24.700Z,91.20
2017-09-30T10:59:46.823Z,50.20
2017-09-30T11:01:08.142Z,81.00
2017-09-30T11:02:29.816Z,42.40
2017-09-30T11:03:51.769Z,59.60
2017-09-30T11:05:13.409Z,56.60
2017-09-30T11:06:35.356Z,60.30
2017-09-30T11:07:56.972Z,54.00
2017-09-30T11:09:20.782Z,58.10
2017-09-30T11:10:48.405Z,0.00
2017-09-30T11:12:09.711Z,77.40
2017-09-30T11:13:34.065Z,79.40
2017-09-30T11:14:55.144Z,64.60
2017-09-30T11:16:17.175Z,72.60
2017-09-30T11:17:42.961Z,0.00
2017-09-30T11:19:06.373Z,54.20
2017-09-30T11:20:29.511Z,0.00
2017-09-30T11:21:51.876Z,0.00
2017-09-30T11:23:13.637Z,90.90
2017-09-30T11:24:34.406Z,77.50
2017-09-30T11:25:55.450Z,57.10
2017-09-30T11:27:16.618Z,65.20
2017-09-30T11:28:38.312Z,59.30
2017-09-30T11:29:59.290Z,63.50
2017-09-30T11:31:20.149Z,39.80
2017-09-30T11:32:40.985Z,51.40
2017-09-30T11:34:02.096Z,52.20
2017-09-30T11:35:22.814Z,76.10
2017-09-30T11:36:43.589Z,64.40
2017-09-30T11:38:04.454Z,41.70
2017-09-30T11:39:25.396Z,34.60
2017-09-30T11:40:46.604Z,28.70
2017-09-30T11:42:08.487Z,36.00
2017-09-30T11:43:32.526Z,35.00
2017-09-30T11:44:53.750Z,0.00
2017-09-30T11:46:14.556Z,18.80
2017-09-30T11:47:35.335Z,28.20
2017-09-30T11:48:57.179Z,30.00
2017-09-30T11:55:56.292Z,26.20
2017-09-30T11:57:16.984Z,29.90
2017-09-30T11:58:37.820Z,27.60
2017-09-30T11:59:58.548Z,24.20
2017-09-30T12:01:20.395Z,67.00
2017-09-30T12:02:41.874Z,37.70
2017-09-30T12:04:02.941Z,53.00
2017-09-30T12:05:24.487Z,32.00
2017-09-30T12:06:45.420Z,24.50
2017-09-30T12:08:06.659Z,23.40
2017-09-30T12:09:28.433Z,28.30
2017-09-30T12:10:50.729Z,23.00
2017-09-30T12:12:11.855Z,23.80
2017-09-30T12:13:33.697Z,27.00
2017-09-30T12:14:54.728Z,35.90
2017-09-30T12:16:15.811Z,21.30
2017-09-30T12:17:37.907Z,33.60
2017-09-30T12:18:59.188Z,24.80
2017-09-30T12:20:20.844Z,20.10
2017-09-30T12:21:41.997Z,16.20
2017-09-30T12:23:03.355Z,18.70
2017-09-30T12:24:24.236Z,21.40
2017-09-30T12:25:45.065Z,23.20
2017-09-30T12:27:06.254Z,29.60
2017-09-30T12:28:29.686Z,18.40
2017-09-30T12:29:50.730Z,26.60
2017-09-30T12:31:12.119Z,17.10
2017-09-30T12:32:33.362Z,64.60
2017-09-30T12:33:54.653Z,31.10
2017-09-30T12:35:16.013Z,30.90
2017-09-30T12:36:36.991Z,25.70
2017-09-30T12:37:57.775Z,31.40
2017-09-30T12:39:18.592Z,21.70
2017-09-30T12:40:39.453Z,26.00
2017-09-30T12:42:00.376Z,21.60
2017-09-30T12:43:22.685Z,14.30
2017-09-30T12:44:43.975Z,28.80
2017-09-30T12:46:04.780Z,16.10
2017-09-30T12:47:25.520Z,22.00
2017-09-30T12:48:46.251Z,19.00
2017-09-30T12:50:07.319Z,55.00
2017-09-30T12:51:28.115Z,38.20
2017-09-30T12:52:49.937Z,39.80
2017-09-30T12:54:11.288Z,43.00
2017-09-30T12:55:33.050Z,30.50
2017-09-30T12:56:53.853Z,26.70
2017-09-30T12:58:14.562Z,29.10
2017-09-30T12:59:35.583Z,31.90
2017-09-30T13:00:56.839Z,42.50
2017-09-30T13:02:19.084Z,24.20
2017-09-30T13:03:39.846Z,31.50
2017-09-30T13:05:01.565Z,25.20
2017-09-30T13:06:22.471Z,27.50
2017-09-30T13:07:43.256Z,43.10
2017-09-30T13:09:04.340Z,30.80
2017-09-30T13:10:25.092Z,28.10
2017-09-30T13:11:46.815Z,38.70
2017-09-30T13:13:07.571Z,23.20
2017-09-30T13:14:28.813Z,35.60
2017-09-30T13:15:50.248Z,26.00
2017-09-30T13:17:11.136Z,36.90
2017-09-30T13:18:31.856Z,39.40
2017-09-30T13:19:52.977Z,37.20
2017-09-30T13:21:13.730Z,28.20
2017-09-30T13:22:36.302Z,38.70
2017-09-30T13:23:57.074Z,40.90
2017-09-30T13:25:17.680Z,36.40
2017-09-30T13:26:38.409Z,41.10
2017-09-30T13:37:16.623Z,36.00
2017-09-30T13:38:37.440Z,29.70
2017-09-30T13:39:58.320Z,23.50
2017-09-30T13:41:19.054Z,34.10
2017-09-30T13:42:39.989Z,28.70
2017-09-30T13:44:00.733Z,24.70
2017-09-30T13:45:22.072Z,30.20
2017-09-30T13:46:42.760Z,34.30
2017-09-30T13:48:04.576Z,38.80
2017-09-30T13:49:26.445Z,43.00
2017-09-30T13:50:46.991Z,31.60
2017-09-30T13:52:07.693Z,44.00
2017-09-30T13:53:29.678Z,31.00
2017-09-30T13:54:50.469Z,41.50
2017-09-30T13:56:11.938Z,44.70
2017-09-30T13:57:32.580Z,42.20
2017-09-30T13:58:54.450Z,26.20
2017-09-30T14:00:14.944Z,6.90
2017-09-30T14:01:36.352Z,5.80
2017-09-30T14:02:57.339Z,8.50
2017-09-30T14:04:18.143Z,7.80
2017-09-30T14:05:39.274Z,8.40
2017-09-30T14:06:59.975Z,9.30
2017-09-30T14:08:20.562Z,11.40
2017-09-30T14:09:41.479Z,12.80
2017-09-30T14:11:02.333Z,13.70
2017-09-30T14:12:24.114Z,14.50
2017-09-30T14:13:45.141Z,13.40
2017-09-30T14:15:06.373Z,6.10
2017-09-30T14:16:27.141Z,6.10
2017-09-30T14:17:48.675Z,4.70
2017-09-30T14:19:09.664Z,4.50
2017-09-30T14:20:31.256Z,7.20
2017-09-30T14:21:52.470Z,10.00
2017-09-30T14:23:14.045Z,4.10
2017-09-30T14:24:34.934Z,9.60
2017-09-30T14:25:56.073Z,7.80
2017-09-30T14:27:17.629Z,9.20
2017-09-30T14:28:38.385Z,8.80
2017-09-30T14:35:22.595Z,13.60
2017-09-30T14:36:43.304Z,18.90
2017-09-30T14:38:05.238Z,18.70
2017-09-30T14:39:26.121Z,15.40
2017-09-30T14:40:46.986Z,11.60
2017-09-30T14:42:07.624Z,8.10
2017-09-30T14:43:28.319Z,9.20
2017-09-30T14:44:49.927Z,12.10
2017-09-30T14:46:10.542Z,10.50
2017-09-30T14:47:31.241Z,15.10
2017-09-30T14:48:52.531Z,18.70
2017-09-30T14:50:13.976Z,17.30
2017-09-30T14:51:34.642Z,11.10
2017-09-30T14:52:55.319Z,11.20
2017-09-30T14:54:16.155Z,13.40
2017-09-30T14:55:36.684Z,14.00
2017-09-30T14:56:57.814Z,10.80
2017-09-30T14:58:18.475Z,10.40
2017-09-30T14:59:39.240Z,11.00
2017-09-30T15:01:00.663Z,12.40
2017-09-30T15:02:21.429Z,12.30
2017-09-30T15:03:42.741Z,16.30
2017-09-30T15:05:04.064Z,12.00
2017-09-30T15:06:25.194Z,13.90
2017-09-30T15:07:46.566Z,14.60
2017-09-30T15:09:09.379Z,20.80
2017-09-30T15:10:30.304Z,19.90
2017-09-30T15:11:51.150Z,18.90
2017-09-30T15:13:12.435Z,22.90
2017-09-30T15:14:34.973Z,20.60
2017-09-30T15:15:55.931Z,15.50
2017-09-30T15:17:16.821Z,16.10
2017-09-30T15:18:40.260Z,16.30
2017-09-30T15:20:01.890Z,18.70
2017-09-30T15:21:22.972Z,23.90
2017-09-30T15:22:43.709Z,24.70
2017-09-30T15:24:04.929Z,15.70
2017-09-30T15:25:26.265Z,21.70
2017-09-30T15:26:47.268Z,16.60
2017-09-30T15:28:09.746Z,16.20
2017-09-30T15:29:31.087Z,19.60
2017-09-30T15:30:52.781Z,25.20
2017-09-30T15:32:13.812Z,16.80
2017-09-30T15:33:34.306Z,13.60
2017-09-30T15:34:55.051Z,22.70
2017-09-30T15:36:15.873Z,15.60
2017-09-30T15:37:36.383Z,19.60
2017-09-30T15:38:57.385Z,22.60
2017-09-30T15:40:18.729Z,26.20
2017-09-30T15:41:39.714Z,19.60
2017-09-30T15:43:00.688Z,24.70
2017-09-30T15:44:21.405Z,14.30
2017-09-30T15:45:42.526Z,19.10
2017-09-30T15:47:03.478Z,24.20
2017-09-30T15:48:25.265Z,177.60
2017-09-30T15:49:46.893Z,46.40
2017-09-30T15:51:09.257Z,32.00
2017-09-30T15:52:29.853Z,21.30
2017-09-30T15:53:52.817Z,18.10
2017-09-30T15:55:13.896Z,19.20
2017-09-30T15:56:35.558Z,16.90
2017-09-30T15:57:56.445Z,19.10
2017-09-30T15:59:18.043Z,25.70
2017-09-30T16:00:39.552Z,30.40
2017-09-30T16:02:00.955Z,29.10
2017-09-30T16:03:21.884Z,25.30
2017-09-30T16:04:43.229Z,23.50
2017-09-30T16:06:06.106Z,29.80
2017-09-30T16:07:27.304Z,24.10
2017-09-30T16:08:48.217Z,25.20
2017-09-30T16:10:08.893Z,23.50
2017-09-30T16:11:29.854Z,20.90
2017-09-30T16:12:51.407Z,20.60
2017-09-30T16:14:12.721Z,22.10
2017-09-30T16:15:33.310Z,18.60
2017-09-30T16:16:53.987Z,19.20
2017-09-30T16:18:15.300Z,34.20
2017-09-30T16:19:37.232Z,43.90
2017-09-30T16:20:59.762Z,27.70
2017-09-30T16:22:22.691Z,21.30
2017-09-30T16:23:44.543Z,26.90
2017-09-30T16:25:06.438Z,30.70
2017-09-30T16:26:27.831Z,23.40
2017-09-30T16:27:49.665Z,23.10
2017-09-30T16:29:10.975Z,26.20
2017-09-30T16:30:32.643Z,24.50
2017-09-30T16:31:59.774Z,24.20
2017-09-30T16:33:21.711Z,18.90
2017-09-30T16:34:43.497Z,21.30
2017-09-30T16:36:04.416Z,34.80
2017-09-30T16:37:25.039Z,41.40
2017-09-30T16:38:45.664Z,52.40
2017-09-30T16:40:06.676Z,56.70
2017-09-30T16:41:27.336Z,48.90
2017-09-30T16:42:48.070Z,45.20
2017-09-30T16:44:10.061Z,34.10
2017-09-30T16:45:30.856Z,44.80
2017-09-30T16:46:51.676Z,29.00
2017-09-30T16:48:12.365Z,28.60
2017-09-30T16:49:33.022Z,24.70
2017-09-30T16:50:53.993Z,21.30
2017-09-30T16:52:15.437Z,21.00
2017-09-30T16:53:36.011Z,22.40
2017-09-30T16:54:56.747Z,17.40
2017-09-30T16:56:19.401Z,30.10
2017-09-30T16:57:40.874Z,0.00
2017-09-30T16:59:01.410Z,19.80
2017-09-30T17:00:23.677Z,17.80
2017-09-30T17:01:44.334Z,22.80
2017-09-30T17:03:08.184Z,14.60
2017-09-30T17:04:28.841Z,0.00
2017-09-30T17:05:52.151Z,27.50
2017-09-30T17:07:16.066Z,0.00
2017-09-30T17:08:37.701Z,0.00
2017-09-30T17:09:59.100Z,20.00
2017-09-30T17:11:21.506Z,21.10
2017-09-30T17:12:45.270Z,16.00
2017-09-30T17:14:16.269Z,16.70
2017-09-30T17:15:44.776Z,17.20
2017-09-30T17:17:06.217Z,14.00
2017-09-30T17:18:31.104Z,13.20
2017-09-30T17:19:52.970Z,15.60
2017-09-30T17:21:14.588Z,11.90
2017-09-30T17:22:35.763Z,12.60
2017-09-30T17:23:57.191Z,13.00
2017-09-30T17:25:18.582Z,9.20
2017-09-30T17:26:39.939Z,8.60
2017-09-30T17:28:02.532Z,10.00
2017-09-30T17:29:25.694Z,16.00
2017-09-30T17:30:47.328Z,0.00
2017-09-30T17:32:10.640Z,13.00
2017-09-30T17:33:33.310Z,0.00
2017-09-30T17:34:54.924Z,10.90
2017-09-30T17:36:19.629Z,11.60
2017-09-30T17:37:41.959Z,13.00
2017-09-30T17:39:03.072Z,14.50
2017-09-30T17:40:25.372Z,9.90
2017-09-30T17:41:46.540Z,12.00
2017-09-30T17:43:07.356Z,13.40